Time;durP1;ratioP1;P1;durP2;ratioP2;P2;SDS_P1;SDS_P2;PMS_P1;PMS_P2;Temp;Humidity;BMP_temperature;BMP_pressure;BME280_temperature;BME280_humidity;BME280_pressure;Samples;Min_cycle;Max_cycle;Signal;HPM_P1;HPM_P2
2021/10/20 00:02:09;;;;;;;;;11.50;9.50;;;;;19.25;61.04;101056.50;5000105;28;45730;-58
2021/10/20 00:04:34;;;;;;;;;9.50;9.00;;;;;19.24;61.22;101057.44;5000189;28;45660;-58
2021/10/20 00:07:00;;;;;;;;;10.00;9.25;;;;;19.22;61.34;101055.81;5002328;28;45376;-59
2021/10/20 00:09:26;;;;;;;;;12.50;10.00;;;;;19.22;61.69;101050.53;5002582;28;45306;-59
2021/10/20 00:11:51;;;;;;;;;8.00;7.50;;;;;19.22;61.25;101051.41;5002485;28;45513;-59
2021/10/20 00:14:17;;;;;;;;;10.25;10.25;;;;;19.22;61.47;101048.78;5000983;28;46233;-59
2021/10/20 00:16:42;;;;;;;;;13.50;9.00;;;;;19.20;62.50;101045.34;5002244;28;45322;-58
2021/10/20 00:19:08;;;;;;;;;11.50;9.25;;;;;19.20;61.83;101037.44;5002409;28;45409;-58
2021/10/20 00:21:34;;;;;;;;;11.00;9.50;;;;;19.19;63.13;101042.81;5002456;28;45215;-59
2021/10/20 00:23:59;;;;;;;;;13.50;11.50;;;;;19.18;61.96;101033.22;5001618;28;45393;-58
2021/10/20 00:26:26;;;;;;;;;13.00;12.00;;;;;19.18;62.66;101025.31;5002180;28;45290;-58
2021/10/20 00:28:51;;;;;;;;;9.50;9.50;;;;;19.19;62.28;101027.84;5002187;28;45175;-58
2021/10/20 00:31:16;;;;;;;;;9.00;8.00;;;;;19.18;63.40;101020.03;5002433;28;45289;-58
2021/10/20 00:33:42;;;;;;;;;11.00;8.00;;;;;19.14;63.70;101020.22;5001780;28;46246;-59
2021/10/20 00:36:07;;;;;;;;;10.25;9.00;;;;;19.13;63.92;101015.06;5002068;28;45381;-59
2021/10/20 00:38:33;;;;;;;;;10.25;9.00;;;;;19.12;63.79;101016.84;5000529;28;45513;-58
2021/10/20 00:40:59;;;;;;;;;10.00;9.75;;;;;19.12;64.33;101005.44;5002252;28;45278;-58
2021/10/20 00:43:24;;;;;;;;;11.25;10.25;;;;;19.12;63.53;101011.56;5001659;28;46244;-59
2021/10/20 00:45:51;;;;;;;;;12.50;10.75;;;;;19.12;63.84;101000.19;4999301;28;45421;-59
2021/10/20 00:48:16;;;;;;;;;13.00;10.50;;;;;19.12;64.00;100995.75;5001777;28;45373;-58
2021/10/20 00:50:42;;;;;;;;;11.50;10.50;;;;;19.12;63.75;100992.28;5001876;28;45357;-59
2021/10/20 00:53:08;;;;;;;;;10.75;9.50;;;;;19.13;64.19;100991.34;5001424;28;46261;-59
2021/10/20 00:55:34;;;;;;;;;13.25;10.00;;;;;19.13;64.38;100993.97;5002027;28;45249;-59
2021/10/20 00:58:00;;;;;;;;;18.00;14.25;;;;;19.13;64.11;100992.19;5001872;28;45240;-59
2021/10/20 01:00:26;;;;;;;;;12.50;12.50;;;;;19.14;64.11;100993.03;5002007;28;45470;-60
2021/10/20 01:02:51;;;;;;;;;14.75;13.25;;;;;19.13;64.05;100986.91;4999966;28;45421;-59
2021/10/20 01:05:16;;;;;;;;;10.50;10.50;;;;;19.14;64.41;100983.34;5001889;28;45264;-59
2021/10/20 01:07:42;;;;;;;;;11.00;11.00;;;;;19.15;64.03;100987.66;5000971;28;45248;-59
2021/10/20 01:10:10;;;;;;;;;10.75;10.50;;;;;19.15;64.69;100978.91;5001539;28;45492;-59
2021/10/20 01:12:37;;;;;;;;;9.50;9.50;;;;;19.14;64.50;100988.63;5001629;28;45333;-59
2021/10/20 01:15:14;;;;;;;;;12.50;10.50;;;;;19.14;64.69;100993.03;5001559;28;45311;-59
2021/10/20 01:17:40;;;;;;;;;12.25;12.25;;;;;19.11;65.12;100978.25;5001421;28;45313;-60
2021/10/20 01:20:08;;;;;;;;;16.00;12.00;;;;;19.12;65.15;100968.56;5001138;28;45244;-60
2021/10/20 01:22:34;;;;;;;;;11.75;9.75;;;;;19.09;64.74;100953.78;5000772;28;45614;-60
2021/10/20 01:24:59;;;;;;;;;13.00;9.50;;;;;19.09;65.05;100964.34;5000977;28;45530;-59
2021/10/20 01:27:25;;;;;;;;;11.00;10.25;;;;;19.06;65.22;100964.53;5001447;28;45458;-60
2021/10/20 01:29:51;;;;;;;;;11.00;10.00;;;;;19.06;65.59;100953.97;5000697;28;45417;-60
2021/10/20 01:32:16;;;;;;;;;10.75;9.25;;;;;19.05;65.92;100954.06;5000828;28;46277;-59
2021/10/20 01:34:42;;;;;;;;;12.75;11.25;;;;;19.01;66.05;100950.75;4998797;28;45546;-59
2021/10/20 01:37:09;;;;;;;;;12.00;10.50;;;;;19.00;65.68;100948.22;5000922;28;45456;-60
2021/10/20 01:39:35;;;;;;;;;10.50;10.50;;;;;18.98;66.03;100945.66;5000680;28;45397;-59
2021/10/20 01:42:01;;;;;;;;;14.25;11.00;;;;;18.98;65.88;100956.19;4999603;28;46192;-59
2021/10/20 01:44:27;;;;;;;;;12.25;9.75;;;;;18.96;66.28;100954.59;5001132;28;45396;-60
2021/10/20 01:46:53;;;;;;;;;12.50;12.00;;;;;18.95;66.28;100939.75;4997866;28;45262;-60
2021/10/20 01:49:18;;;;;;;;;13.25;11.75;;;;;18.93;66.70;100934.56;5000535;28;45527;-60
2021/10/20 01:51:44;;;;;;;;;10.25;10.25;;;;;18.93;66.52;100921.41;5000494;28;45466;-59
2021/10/20 01:54:09;;;;;;;;;12.25;10.50;;;;;18.90;67.49;100910.19;4999261;28;45397;-59
2021/10/20 01:56:35;;;;;;;;;13.25;12.25;;;;;18.88;66.99;100910.28;4998312;28;45790;-59
2021/10/20 01:59:00;;;;;;;;;10.50;9.25;;;;;18.89;67.42;100911.16;4998566;28;45704;-59
2021/10/20 02:01:26;;;;;;;;;11.25;10.00;;;;;18.89;67.54;100905.88;4996721;28;45345;-60
2021/10/20 02:03:51;;;;;;;;;15.75;13.50;;;;;18.87;66.66;100900.69;4998225;28;45379;-61
2021/10/20 02:06:18;;;;;;;;;11.00;10.00;;;;;18.87;68.41;100905.97;4998257;28;45468;-62
2021/10/20 02:08:45;;;;;;;;;12.00;11.75;;;;;18.85;67.61;100892.06;4999160;28;45374;-62
2021/10/20 02:11:11;;;;;;;;;11.00;11.00;;;;;18.86;68.11;100895.53;4999931;28;46140;-62
2021/10/20 02:13:37;;;;;;;;;13.50;12.00;;;;;18.86;68.00;100892.91;5000759;28;45315;-62
2021/10/20 02:16:03;;;;;;;;;15.00;14.25;;;;;18.84;68.32;100878.03;5000365;28;45293;-62
2021/10/20 02:18:29;;;;;;;;;14.00;13.50;;;;;18.83;68.68;100873.72;5000737;28;45534;-63
2021/10/20 02:20:54;;;;;;;;;12.25;11.00;;;;;18.82;69.08;100869.38;5000294;28;45393;-62
2021/10/20 02:23:20;;;;;;;;;13.00;13.00;;;;;18.81;68.60;100869.44;4999886;28;45405;-62
2021/10/20 02:25:45;;;;;;;;;12.50;12.50;;;;;18.81;68.55;100867.66;5000356;28;45492;-63
2021/10/20 02:28:11;;;;;;;;;11.25;9.75;;;;;18.82;69.20;100860.59;4999684;28;45446;-62
2021/10/20 02:30:37;;;;;;;;;13.00;11.00;;;;;18.81;69.11;100849.22;5000136;28;45371;-62
2021/10/20 02:33:03;;;;;;;;;17.00;14.75;;;;;18.80;69.09;100849.31;5000257;28;45328;-62
2021/10/20 02:35:28;;;;;;;;;10.25;9.00;;;;;18.78;69.38;100840.66;5000297;28;45376;-62
2021/10/20 02:37:54;;;;;;;;;16.25;15.25;;;;;18.75;69.14;100843.50;5000169;28;45188;-62
2021/10/20 02:40:19;;;;;;;;;14.75;12.00;;;;;18.73;69.23;100840.94;4999779;28;46249;-62
2021/10/20 02:42:46;;;;;;;;;13.50;12.00;;;;;18.71;69.50;100834.94;5000134;28;45251;-62
2021/10/20 02:45:13;;;;;;;;;14.00;13.25;;;;;18.71;69.23;100834.09;4999956;28;45361;-62
2021/10/20 02:47:39;;;;;;;;;13.75;13.00;;;;;18.67;70.32;100825.53;5000196;28;45349;-62
2021/10/20 02:50:06;;;;;;;;;12.75;12.75;;;;;18.62;70.06;100821.44;4997074;28;45398;-62
2021/10/20 02:52:31;;;;;;;;;16.25;13.00;;;;;18.60;70.08;100815.41;4999829;28;45388;-62
2021/10/20 02:54:56;;;;;;;;;13.25;11.75;;;;;18.57;69.86;100813.81;4999769;28;45305;-62
2021/10/20 02:57:22;;;;;;;;;14.00;12.75;;;;;18.55;69.97;100808.63;4999922;28;45442;-62
2021/10/20 02:59:48;;;;;;;;;17.25;14.25;;;;;18.51;71.41;100815.03;4999200;28;45250;-62
2021/10/20 03:02:14;;;;;;;;;13.00;12.50;;;;;18.47;70.41;100816.16;4998208;28;45292;-62
2021/10/20 03:04:39;;;;;;;;;15.00;14.50;;;;;18.46;70.82;100811.84;4999858;28;45377;-62
2021/10/20 03:07:05;;;;;;;;;13.25;13.25;;;;;18.44;71.55;100813.72;5000014;28;45386;-62
2021/10/20 03:09:30;;;;;;;;;14.75;14.00;;;;;18.41;70.92;100821.75;4999795;28;45330;-60
2021/10/20 03:11:55;;;;;;;;;16.25;14.25;;;;;18.40;71.05;100820.06;4999665;28;45409;-60
2021/10/20 03:14:21;;;;;;;;;14.25;14.00;;;;;18.37;71.79;100817.63;4999721;28;45270;-60
2021/10/20 03:16:46;;;;;;;;;17.75;15.00;;;;;18.31;72.12;100831.13;4999521;28;45462;-60
2021/10/20 03:19:12;;;;;;;;;18.00;14.00;;;;;18.30;72.01;100837.34;4998729;28;45290;-60
2021/10/20 03:21:37;;;;;;;;;14.75;13.00;;;;;18.30;71.67;100847.88;4999290;28;45327;-60
2021/10/20 03:24:02;;;;;;;;;17.75;14.25;;;;;18.33;71.84;100837.16;4999363;28;45303;-60
2021/10/20 03:26:28;;;;;;;;;16.75;15.00;;;;;18.33;71.77;100849.47;4999561;28;45238;-60
2021/10/20 03:28:53;;;;;;;;;14.50;11.50;;;;;18.31;72.12;100849.56;4981213;28;45974;-60
2021/10/20 03:31:19;;;;;;;;;17.50;16.25;;;;;18.33;71.93;100852.09;4999554;28;45300;-60
2021/10/20 03:33:45;;;;;;;;;14.75;14.75;;;;;18.32;70.89;100818.84;4999559;28;45648;-61
2021/10/20 03:36:10;;;;;;;;;18.50;13.50;;;;;18.31;71.78;100820.63;5006072;28;45353;-61
2021/10/20 03:38:36;;;;;;;;;16.75;13.75;;;;;18.27;72.56;100799.84;5002286;28;45239;-61
2021/10/20 03:41:02;;;;;;;;;16.75;15.75;;;;;18.23;72.85;100799.19;4999467;28;45346;-61
2021/10/20 03:43:27;;;;;;;;;19.50;18.25;;;;;18.22;72.56;100802.75;4999483;28;45300;-60
2021/10/20 03:45:53;;;;;;;;;17.75;15.50;;;;;18.22;73.02;100813.28;4999469;28;45376;-60
2021/10/20 03:48:18;;;;;;;;;13.25;13.25;;;;;18.22;72.42;100805.38;4998372;28;45286;-60
2021/10/20 03:50:44;;;;;;;;;18.25;15.00;;;;;18.24;72.85;100806.13;4999233;28;45253;-60
2021/10/20 03:53:09;;;;;;;;;17.50;14.00;;;;;18.26;72.79;100811.31;4996255;28;45574;-60
2021/10/20 03:55:35;;;;;;;;;17.00;14.00;;;;;18.28;72.57;100806.81;4986804;28;45351;-61
2021/10/20 03:58:01;;;;;;;;;14.75;13.00;;;;;18.28;73.03;100806.81;4998734;28;45286;-61
2021/10/20 04:00:26;;;;;;;;;15.75;14.50;;;;;18.28;72.55;100801.53;4999247;28;45582;-61
2021/10/20 04:02:52;;;;;;;;;16.25;15.50;;;;;18.29;72.66;100811.97;4997279;28;45489;-60
2021/10/20 04:05:19;;;;;;;;;19.25;17.25;;;;;18.31;73.20;100809.25;4999551;28;45194;-60
2021/10/20 04:07:48;;;;;;;;;16.75;14.25;;;;;18.32;72.90;100793.38;4998876;28;46075;-59
2021/10/20 04:10:16;;;;;;;;;15.00;14.00;;;;;18.32;72.95;100780.22;4999048;28;45338;-61
2021/10/20 04:12:43;;;;;;;;;15.25;14.75;;;;;18.29;72.39;100758.50;4994888;28;45287;-61
2021/10/20 04:15:09;;;;;;;;;15.00;14.00;;;;;18.28;72.09;100762.91;5002390;28;45441;-61
2021/10/20 04:17:35;;;;;;;;;17.50;16.00;;;;;18.24;73.04;100764.88;4984240;28;47270;-61
2021/10/20 04:20:01;;;;;;;;;15.25;11.25;;;;;18.23;72.84;100765.84;5002482;28;45269;-62
2021/10/20 04:22:26;;;;;;;;;14.50;14.50;;;;;18.22;72.84;100764.13;5000266;28;45387;-62
2021/10/20 04:24:51;;;;;;;;;13.75;12.75;;;;;18.18;73.86;100774.91;4990883;28;45306;-63
2021/10/20 04:27:17;;;;;;;;;26.25;22.50;;;;;18.15;73.37;100778.56;4984350;28;47179;-60
2021/10/20 04:29:42;;;;;;;;;16.75;15.00;;;;;18.21;76.12;100783.47;4983453;28;45298;-61
2021/10/20 04:32:08;;;;;;;;;18.75;15.75;;;;;18.33;73.82;100774.00;4984472;28;45307;-63
2021/10/20 04:34:33;;;;;;;;;20.25;17.50;;;;;18.31;73.74;100770.63;4983541;28;45365;-63
2021/10/20 04:36:58;;;;;;;;;20.00;16.25;;;;;18.29;73.36;100756.72;4994117;28;45228;-65
2021/10/20 04:39:24;;;;;;;;;15.50;13.00;;;;;18.29;73.67;100756.72;4982914;28;45268;-65
2021/10/20 04:41:49;;;;;;;;;13.75;13.50;;;;;18.31;73.18;100780.31;4984133;28;45435;-66
2021/10/20 04:44:14;;;;;;;;;20.75;17.75;;;;;18.33;73.24;100776.66;4983096;28;45227;-64
2021/10/20 04:46:40;;;;;;;;;14.75;13.00;;;;;18.35;72.97;100774.75;4989943;28;46283;-65
2021/10/20 04:49:05;;;;;;;;;17.50;14.25;;;;;18.33;72.99;100773.16;5001677;28;45282;-59
2021/10/20 04:51:31;;;;;;;;;18.50;16.00;;;;;18.32;72.59;100766.22;4999512;28;45428;-62
2021/10/20 04:53:56;;;;;;;;;12.50;12.25;;;;;18.30;74.20;100800.50;4983203;28;45394;-62
2021/10/20 04:56:22;;;;;;;;;17.25;16.00;;;;;18.25;73.53;100786.78;4995490;28;46087;-66
2021/10/20 04:58:47;;;;;;;;;17.50;17.25;;;;;18.28;73.25;100768.19;4992914;28;45380;-61
2021/10/20 05:01:12;;;;;;;;;17.75;14.50;;;;;18.32;73.33;100808.31;4998075;28;45576;-61
2021/10/20 05:03:38;;;;;;;;;15.75;15.00;;;;;18.34;73.68;100785.38;4994323;28;45207;-60
2021/10/20 05:06:03;;;;;;;;;17.75;16.00;;;;;18.39;72.92;100799.94;4984025;28;45325;-59
2021/10/20 05:08:28;;;;;;;;;17.50;14.75;;;;;18.44;73.00;100787.41;4983052;28;45278;-60
2021/10/20 05:10:57;;;;;;;;;17.00;16.00;;;;;18.42;73.29;100793.66;4982921;28;45499;-61
2021/10/20 05:13:22;;;;;;;;;17.25;16.00;;;;;18.43;73.36;100780.44;5000181;28;45492;-63
2021/10/20 05:15:48;;;;;;;;;18.25;18.00;;;;;18.44;73.06;100776.88;4987332;28;45489;-62
2021/10/20 05:18:13;;;;;;;;;15.50;14.50;;;;;18.48;73.35;100783.63;4999429;28;45637;-62
2021/10/20 05:20:39;;;;;;;;;22.50;15.75;;;;;18.48;73.26;100761.75;5000318;28;45488;-62
2021/10/20 05:23:04;;;;;;;;;16.00;14.25;;;;;18.48;72.99;100769.63;4984271;28;45447;-63
2021/10/20 05:25:30;;;;;;;;;17.50;15.25;;;;;18.47;73.12;100758.25;4999326;28;45231;-62
2021/10/20 05:27:55;;;;;;;;;15.00;14.00;;;;;18.47;73.55;100742.47;4979075;28;45471;-63
2021/10/20 05:30:21;;;;;;;;;13.75;13.75;;;;;18.45;73.41;100757.50;4995883;28;45274;-62
2021/10/20 05:32:46;;;;;;;;;12.00;11.00;;;;;18.47;73.21;100749.53;4999481;28;45273;-62
2021/10/20 05:35:18;;;;;;;;;16.75;14.25;;;;;18.45;73.23;100741.72;5000156;28;45988;-63
2021/10/20 05:37:46;;;;;;;;;18.00;15.00;;;;;18.49;73.17;100723.94;5000133;28;45483;-63
2021/10/20 05:40:11;;;;;;;;;16.75;15.25;;;;;18.47;73.43;100725.84;5000490;28;45323;-62
2021/10/20 05:42:36;;;;;;;;;18.50;17.50;;;;;18.47;72.89;100715.31;5000721;28;45247;-62
2021/10/20 05:45:02;;;;;;;;;16.25;16.00;;;;;18.46;73.18;100697.81;5000440;28;46091;-62
2021/10/20 05:47:28;;;;;;;;;13.00;13.00;;;;;18.41;73.58;100699.88;5000798;28;45350;-62
2021/10/20 05:49:53;;;;;;;;;14.00;12.75;;;;;18.39;73.75;100702.59;5000724;28;45317;-62
2021/10/20 05:52:18;;;;;;;;;15.50;14.50;;;;;18.41;73.78;100692.81;5000613;28;45567;-63
2021/10/20 05:54:44;;;;;;;;;16.00;14.50;;;;;18.42;73.38;100693.66;5000012;28;46099;-64
2021/10/20 05:57:09;;;;;;;;;16.50;16.25;;;;;18.39;74.12;100704.38;4998519;28;45776;-63
2021/10/20 05:59:34;;;;;;;;;17.00;14.25;;;;;18.39;74.05;100701.75;4998960;28;45345;-63
2021/10/20 06:02:00;;;;;;;;;18.75;17.25;;;;;18.43;73.56;100713.81;4998424;28;45325;-63
2021/10/20 06:04:25;;;;;;;;;15.75;14.50;;;;;18.44;73.93;100712.88;4982724;28;45536;-63
2021/10/20 06:06:50;;;;;;;;;15.75;12.75;;;;;18.44;74.03;100718.97;4999983;28;45417;-62
2021/10/20 06:09:16;;;;;;;;;15.75;14.00;;;;;18.46;73.73;100698.66;5000267;28;45254;-62
2021/10/20 06:11:41;;;;;;;;;16.00;15.75;;;;;18.45;73.59;100710.13;4999894;28;45476;-63
2021/10/20 06:14:06;;;;;;;;;16.00;14.00;;;;;18.45;73.47;100701.41;4999137;28;46266;-62
2021/10/20 06:16:35;;;;;;;;;14.50;13.50;;;;;18.43;73.53;100696.22;4999346;28;45443;-63
2021/10/20 06:19:01;;;;;;;;;13.25;13.25;;;;;18.46;73.50;100697.81;4999980;28;45368;-62
2021/10/20 06:21:26;;;;;;;;;15.25;14.50;;;;;18.45;74.12;100680.34;5000169;28;45208;-63
2021/10/20 06:23:52;;;;;;;;;18.25;16.00;;;;;18.45;74.19;100664.56;4999254;28;45317;-63
2021/10/20 06:26:17;;;;;;;;;15.25;15.00;;;;;18.46;73.81;100653.09;5000016;28;45271;-63
2021/10/20 06:28:42;;;;;;;;;15.50;15.25;;;;;18.47;73.69;100649.53;5000154;28;45158;-63
2021/10/20 06:31:08;;;;;;;;;12.50;11.00;;;;;18.43;73.91;100648.88;5000142;28;45215;-63
2021/10/20 06:33:33;;;;;;;;;18.75;14.50;;;;;18.42;74.16;100662.09;4999966;28;45405;-63
2021/10/20 06:36:00;;;;;;;;;14.50;13.50;;;;;18.39;74.71;100652.59;5003752;28;45361;-63
2021/10/20 06:38:25;;;;;;;;;16.25;16.00;;;;;18.41;75.06;100647.25;5004957;28;45397;-63
2021/10/20 06:40:51;;;;;;;;;16.00;13.50;;;;;18.35;75.37;100632.69;5000005;28;45252;-63
2021/10/20 06:43:16;;;;;;;;;15.75;15.25;;;;;18.29;76.06;100653.28;4999630;28;46107;-66
2021/10/20 06:45:42;;;;;;;;;16.50;14.50;;;;;18.24;76.33;100633.34;5000052;28;45403;-63
2021/10/20 06:48:07;;;;;;;;;18.25;14.50;;;;;18.19;77.38;100626.66;4999893;28;45313;-66
2021/10/20 06:50:34;;;;;;;;;23.00;19.75;;;;;18.09;77.73;100641.31;5000108;28;45465;-73
2021/10/20 06:53:00;;;;;;;;;17.25;15.50;;;;;18.05;78.00;100629.31;4981430;28;47229;-64
2021/10/20 06:55:25;;;;;;;;;15.00;12.50;;;;;18.01;79.10;100618.09;4999803;28;45401;-59
2021/10/20 06:57:51;;;;;;;;;14.00;13.00;;;;;17.88;80.43;100619.78;4999751;28;45484;-62
2021/10/20 07:00:16;;;;;;;;;25.75;22.00;;;;;17.84;80.03;100629.66;4997223;28;45447;-63
2021/10/20 07:02:42;;;;;;;;;17.00;16.00;;;;;17.83;80.01;100621.84;4998003;28;46392;-68
2021/10/20 07:05:08;;;;;;;;;17.75;15.50;;;;;17.78;81.12;100614.22;4999615;28;45407;-63
2021/10/20 07:07:34;;;;;;;;;17.00;16.50;;;;;17.78;81.27;100614.22;4981986;28;45415;-62
2021/10/20 07:09:59;;;;;;;;;23.00;16.75;;;;;17.78;81.20;100608.13;4981498;28;45326;-61
2021/10/20 07:12:25;;;;;;;;;15.50;15.00;;;;;17.78;81.10;100602.84;4999471;28;46050;-61
2021/10/20 07:14:50;;;;;;;;;16.00;15.50;;;;;17.77;81.55;100606.44;4999093;28;45278;-63
2021/10/20 07:17:15;;;;;;;;;17.00;16.50;;;;;17.77;81.61;100606.44;4999430;28;45430;-63
2021/10/20 07:19:41;;;;;;;;;19.00;18.25;;;;;17.78;81.12;100618.63;4999630;28;45314;-63
2021/10/20 07:22:07;;;;;;;;;19.00;16.25;;;;;17.77;81.26;100609.91;4998860;28;47023;-60
2021/10/20 07:24:34;;;;;;;;;21.50;16.00;;;;;17.79;81.25;100620.31;4999119;28;45392;-59
2021/10/20 07:26:59;;;;;;;;;15.75;14.00;;;;;17.82;81.41;100615.75;4999598;28;45239;-61
2021/10/20 07:29:25;;;;;;;;;20.50;17.25;;;;;17.83;81.86;100616.59;4999401;28;45259;-63
2021/10/20 07:31:50;;;;;;;;;18.25;16.75;;;;;17.81;82.49;100616.66;4999144;28;46346;-59
2021/10/20 07:34:15;;;;;;;;;24.00;21.75;;;;;17.83;81.99;100609.56;4999214;28;45282;-62
2021/10/20 07:36:42;;;;;;;;;18.50;17.00;;;;;17.87;81.85;100623.34;4998724;28;45290;-63
2021/10/20 07:39:07;;;;;;;;;20.50;18.00;;;;;17.89;81.59;100629.38;4999016;28;45231;-61
2021/10/20 07:41:33;;;;;;;;;18.00;15.25;;;;;17.87;81.65;100608.44;4998600;28;46132;-63
2021/10/20 07:43:59;;;;;;;;;19.75;14.25;;;;;17.91;81.45;100617.81;4999071;28;45386;-62
2021/10/20 07:46:24;;;;;;;;;10.50;10.25;;;;;17.90;82.07;100618.75;4999473;28;45322;-61
2021/10/20 07:48:50;;;;;;;;;22.00;18.25;;;;;17.89;82.32;100614.44;5002377;28;45274;-63
2021/10/20 07:51:15;;;;;;;;;18.75;16.75;;;;;17.86;83.46;100643.56;5002085;28;45460;-59
2021/10/20 07:53:41;;;;;;;;;16.50;15.75;;;;;17.88;82.91;100640.81;5002245;28;45411;-60
2021/10/20 07:56:06;;;;;;;;;18.75;17.50;;;;;17.90;82.77;100655.56;5002386;28;45334;-59
2021/10/20 07:58:31;;;;;;;;;18.00;16.50;;;;;17.94;82.99;100664.13;4987234;28;45356;-60
2021/10/20 08:00:57;;;;;;;;;20.00;17.50;;;;;17.99;82.90;100669.09;5001977;28;45879;-61
2021/10/20 08:03:22;;;;;;;;;20.00;18.00;;;;;18.05;82.42;100668.75;4998177;28;45630;-59
2021/10/20 08:05:48;;;;;;;;;17.00;17.00;;;;;18.07;83.23;100662.47;5002126;28;45303;-60
2021/10/20 08:08:13;;;;;;;;;24.00;19.50;;;;;18.07;83.11;100667.72;5002104;28;45342;-61
2021/10/20 08:10:40;;;;;;;;;23.75;18.75;;;;;18.10;83.30;100664.91;5001798;28;45965;-61
2021/10/20 08:13:06;;;;;;;;;19.75;17.25;;;;;18.16;82.72;100671.56;5002049;28;45713;-62
2021/10/20 08:15:31;;;;;;;;;18.75;17.25;;;;;18.15;83.22;100651.47;5001964;28;45271;-62
2021/10/20 08:18:00;;;;;;;;;21.50;19.50;;;;;18.14;83.03;100649.78;5001909;28;45342;-63
2021/10/20 08:20:30;;;;;;;;;18.25;17.00;;;;;18.17;83.65;100663.59;5001842;28;46344;-61
2021/10/20 08:22:56;;;;;;;;;24.00;19.75;;;;;18.21;83.92;100654.56;5000806;28;45628;-62
2021/10/20 08:25:21;;;;;;;;;25.25;17.75;;;;;18.26;83.79;100656.09;5001480;28;45273;-65
2021/10/20 08:27:47;;;;;;;;;21.75;19.75;;;;;18.27;83.15;100653.38;5001697;28;45228;-63
2021/10/20 08:30:18;;;;;;;;;21.50;17.50;;;;;18.32;83.14;100653.09;5001518;28;46042;-62
2021/10/20 08:32:53;;;;;;;;;20.25;19.50;;;;;18.37;82.38;100670.28;5001884;28;45770;-62
2021/10/20 08:35:19;;;;;;;;;17.00;15.00;;;;;18.37;83.45;100665.00;5001866;28;45357;-62
2021/10/20 08:37:46;;;;;;;;;14.75;14.75;;;;;18.33;83.10;100668.78;5001725;28;45464;-63
2021/10/20 08:40:12;;;;;;;;;20.00;19.75;;;;;18.30;84.32;100661.06;5001167;28;46537;-63
2021/10/20 08:42:39;;;;;;;;;21.75;18.25;;;;;18.29;83.88;100659.38;5001906;28;45214;-63
2021/10/20 08:45:07;;;;;;;;;22.25;16.75;;;;;18.31;83.71;100656.66;5001796;28;45470;-63
2021/10/20 08:47:33;;;;;;;;;21.50;17.25;;;;;18.28;84.17;100652.44;5001957;28;45280;-63
2021/10/20 08:50:01;;;;;;;;;22.25;19.25;;;;;18.27;84.15;100661.25;5001529;28;46265;-64
2021/10/20 08:52:27;;;;;;;;;19.50;17.75;;;;;18.30;84.15;100665.47;5001484;28;45576;-64
2021/10/20 08:54:53;;;;;;;;;21.75;19.00;;;;;18.33;84.22;100660.88;5001472;28;45516;-61
2021/10/20 08:57:19;;;;;;;;;18.50;18.00;;;;;18.39;84.10;100664.91;5001151;28;45468;-60
2021/10/20 08:59:44;;;;;;;;;23.00;21.25;;;;;18.40;84.64;100669.22;5000378;28;45468;-59
2021/10/20 09:02:11;;;;;;;;;21.50;19.50;;;;;18.45;83.85;100677.72;4999943;28;45329;-61
2021/10/20 09:04:37;;;;;;;;;22.50;17.75;;;;;18.46;84.34;100677.63;4999200;28;45249;-60
2021/10/20 09:07:13;;;;;;;;;18.25;17.00;;;;;18.44;84.74;100674.25;5000043;28;45655;-66
2021/10/20 09:09:38;;;;;;;;;17.00;17.00;;;;;18.48;84.18;100667.84;5001076;28;47125;-63
2021/10/20 09:12:04;;;;;;;;;24.75;21.50;;;;;18.48;85.62;100657.31;5001618;28;45266;-66
2021/10/20 09:14:29;;;;;;;;;24.50;22.50;;;;;18.43;85.09;100667.28;5001446;28;45337;-66
2021/10/20 09:16:54;;;;;;;;;21.25;20.00;;;;;18.47;84.86;100666.16;5001121;28;45385;-68
2021/10/20 09:19:31;;;;;;;;;20.75;20.50;;;;;18.54;84.55;100667.47;5001012;28;45991;-63
2021/10/20 09:22:03;;;;;;;;;16.00;16.00;;;;;18.53;85.98;100664.91;5000162;28;45347;-64
2021/10/20 09:24:38;;;;;;;;;19.25;18.00;;;;;18.50;86.64;100658.06;5000549;28;45274;-63
2021/10/20 09:27:16;;;;;;;;;22.25;18.75;;;;;18.55;86.27;100665.66;5000934;28;45421;-64
2021/10/20 09:29:42;;;;;;;;;20.25;17.50;;;;;18.55;86.45;100657.78;5000971;28;46186;-63
2021/10/20 09:32:08;;;;;;;;;22.00;20.00;;;;;18.53;86.01;100649.97;5000868;28;45207;-66
2021/10/20 09:34:35;;;;;;;;;20.25;19.75;;;;;18.58;85.42;100659.38;5001164;28;45356;-62
2021/10/20 09:37:03;;;;;;;;;23.50;22.00;;;;;18.63;85.46;100657.34;4991832;28;45525;-61
2021/10/20 09:39:28;;;;;;;;;26.75;20.50;;;;;18.69;85.77;100660.44;4983012;28;47004;-63
2021/10/20 09:41:55;;;;;;;;;24.25;21.25;;;;;18.72;85.04;100662.88;5000533;28;45396;-63
2021/10/20 09:44:20;;;;;;;;;21.75;19.00;;;;;18.75;85.37;100659.19;5001100;28;45378;-61
2021/10/20 09:46:47;;;;;;;;;22.00;18.25;;;;;18.70;86.08;100666.53;5000376;28;45197;-63
2021/10/20 09:49:21;;;;;;;;;23.50;19.50;;;;;18.68;85.97;100657.91;5000759;28;46206;-67
2021/10/20 09:51:47;;;;;;;;;21.00;18.75;;;;;18.74;85.68;100650.47;5000406;28;45425;-65
2021/10/20 09:54:23;;;;;;;;;23.75;19.00;;;;;18.82;85.11;100647.31;5000941;28;45259;-65
2021/10/20 09:56:58;;;;;;;;;20.25;18.75;;;;;18.85;84.81;100639.25;4999771;28;45448;-65
2021/10/20 09:59:25;;;;;;;;;22.50;19.25;;;;;18.87;84.88;100639.16;5000009;28;46258;-66
2021/10/20 10:01:51;;;;;;;;;19.50;19.00;;;;;18.94;84.88;100633.41;4998691;28;45389;-63
2021/10/20 10:04:17;;;;;;;;;21.75;18.75;;;;;18.99;84.38;100628.66;5000290;28;45346;-65
2021/10/20 10:06:46;;;;;;;;;25.00;21.25;;;;;19.05;84.25;100625.66;5000009;28;45345;-64
2021/10/20 10:09:13;;;;;;;;;16.75;14.50;;;;;19.08;84.19;100625.47;4997462;28;45368;-63
2021/10/20 10:11:43;;;;;;;;;18.00;16.25;;;;;19.17;83.81;100625.78;4999494;28;45398;-66
2021/10/20 10:14:12;;;;;;;;;17.75;17.25;;;;;19.18;83.60;100620.44;4999977;28;45263;-62
2021/10/20 10:16:41;;;;;;;;;12.25;10.75;;;;;19.14;82.94;100630.31;4999440;28;45310;-64
2021/10/20 10:19:07;;;;;;;;;23.75;19.25;;;;;19.21;83.72;100625.50;4999781;28;46146;-47
2021/10/20 10:21:34;;;;;;;;;17.50;17.00;;;;;19.41;82.61;100624.19;4999878;28;45470;-48
2021/10/20 10:24:03;;;;;;;;;33.75;27.25;;;;;19.59;82.66;100625.63;4998895;28;45231;-46
2021/10/20 10:26:33;;;;;;;;;17.75;15.75;;;;;19.80;80.63;100623.34;4999455;28;45291;-47
2021/10/20 10:29:09;;;;;;;;;16.00;15.25;;;;;19.99;81.53;100617.66;4999429;28;46406;-46
2021/10/20 10:31:39;;;;;;;;;20.00;16.00;;;;;20.17;80.52;100618.19;4999253;28;45290;-47
2021/10/20 10:34:04;;;;;;;;;71.75;50.00;;;;;20.24;80.06;100616.84;4999435;28;45394;-46
2021/10/20 10:36:30;;;;;;;;;23.25;22.25;;;;;20.34;78.22;100618.72;5008340;28;45363;-47
2021/10/20 10:38:58;;;;;;;;;18.00;17.00;;;;;20.32;78.48;100614.50;4999697;28;46494;-55
2021/10/20 10:41:27;;;;;;;;;18.00;16.25;;;;;20.32;78.72;100612.69;4999410;28;45325;-56
2021/10/20 10:44:07;;;;;;;;;22.00;19.00;;;;;20.43;78.92;100613.78;4998296;28;45234;-58
2021/10/20 10:47:03;;;;;;;;;20.50;19.00;;;;;20.51;77.67;100609.63;4999057;28;45512;-51
2021/10/20 10:49:37;;;;;;;;;17.75;17.25;;;;;20.54;77.79;100613.84;4999451;28;46256;-50
2021/10/20 10:52:04;;;;;;;;;26.00;20.00;;;;;20.49;77.71;100606.28;4998043;28;45326;-54
2021/10/20 10:54:55;;;;;;;;;17.25;14.00;;;;;20.57;77.70;100587.22;4999208;28;45226;-51
2021/10/20 10:57:20;;;;;;;;;26.00;21.50;;;;;20.67;77.44;100590.06;4988171;28;45446;-52
2021/10/20 11:00:18;;;;;;;;;20.25;19.25;;;;;20.74;77.14;100594.78;4998806;28;45456;-49
2021/10/20 11:02:50;;;;;;;;;20.75;18.75;;;;;20.59;76.89;100585.31;4948314;28;45371;-51
2021/10/20 11:05:18;;;;;;;;;12.00;11.00;;;;;20.61;76.56;100589.53;4987540;28;45408;-52
2021/10/20 11:07:45;;;;;;;;;18.25;15.25;;;;;20.69;76.63;100590.81;4998769;28;45274;-51